createdAt,value
2022-09-30T00:00:41.823Z,68.99
2022-09-30T00:04:04.898Z,69.06
2022-09-30T00:07:07.885Z,69.17
2022-09-30T00:10:11.071Z,68.97
2022-09-30T00:13:15.100Z,68.86
2022-09-30T00:16:21.300Z,69.07
2022-09-30T00:19:24.478Z,69.04
2022-09-30T00:22:27.473Z,69.06
2022-09-30T00:25:30.553Z,69.25
2022-09-30T00:28:34.369Z,69.21
2022-09-30T00:31:37.538Z,69.01
2022-09-30T00:34:41.127Z,68.88
2022-09-30T00:37:44.158Z,68.92
2022-09-30T00:40:47.525Z,68.95
2022-09-30T00:43:53.629Z,68.87
2022-09-30T00:46:57.141Z,68.99
2022-09-30T00:50:10.113Z,68.94
2022-09-30T00:53:24.695Z,69.06
2022-09-30T00:56:38.376Z,69.15
2022-09-30T00:59:45.715Z,69.42
2022-09-30T01:02:49.714Z,69.37
2022-09-30T01:05:53.704Z,69.40
2022-09-30T01:08:58.556Z,69.50
2022-09-30T01:12:07.276Z,69.39
2022-09-30T01:15:10.843Z,69.37
2022-09-30T01:18:21.318Z,69.49
2022-09-30T01:21:40.982Z,69.58
2022-09-30T01:25:02.383Z,69.68
2022-09-30T01:28:26.203Z,69.73
2022-09-30T01:31:49.465Z,69.74
2022-09-30T01:35:15.544Z,69.66
2022-09-30T01:38:18.691Z,69.88
2022-09-30T01:41:54.688Z,69.94
2022-09-30T01:45:13.633Z,70.07
2022-09-30T01:48:28.591Z,69.92
2022-09-30T01:51:45.914Z,69.90
2022-09-30T01:55:38.141Z,69.95
2022-09-30T01:58:53.544Z,69.99
2022-09-30T02:02:06.920Z,69.99
2022-09-30T02:05:19.645Z,70.24
2022-09-30T02:08:35.515Z,70.18
2022-09-30T02:11:41.079Z,70.10
2022-09-30T02:14:57.339Z,70.31
2022-09-30T02:18:08.435Z,70.17
2022-09-30T02:21:15.941Z,70.17
2022-09-30T02:24:25.368Z,70.14
2022-09-30T02:27:34.702Z,69.99
2022-09-30T02:30:43.200Z,70.22
2022-09-30T02:33:55.103Z,70.27
2022-09-30T02:37:32.859Z,70.35
2022-09-30T02:40:47.555Z,70.19
2022-09-30T02:43:52.425Z,70.36
2022-09-30T02:47:19.438Z,70.39
2022-09-30T02:50:53.507Z,70.46
2022-09-30T02:54:07.483Z,70.63
2022-09-30T02:57:47.638Z,70.64
2022-09-30T03:00:50.634Z,70.63
2022-09-30T03:04:00.750Z,70.58
2022-09-30T03:07:03.916Z,70.67
2022-09-30T03:10:15.692Z,70.71
2022-09-30T03:13:44.382Z,70.76
2022-09-30T03:17:17.278Z,70.65
2022-09-30T03:20:34.510Z,70.88
2022-09-30T03:23:59.104Z,70.84
2022-09-30T03:27:32.557Z,70.87
2022-09-30T03:30:45.406Z,70.95
2022-09-30T03:34:22.246Z,70.92
2022-09-30T03:37:40.413Z,71.16
2022-09-30T03:41:02.972Z,71.13
2022-09-30T03:44:17.308Z,71.10
2022-09-30T03:47:22.466Z,71.34
2022-09-30T03:50:28.309Z,71.38
2022-09-30T03:53:31.554Z,71.27
2022-09-30T03:56:34.498Z,71.23
2022-09-30T03:59:37.382Z,71.28
2022-09-30T04:02:40.419Z,71.33
2022-09-30T04:05:43.758Z,71.32
2022-09-30T04:08:46.765Z,71.51
2022-09-30T04:11:49.739Z,71.41
2022-09-30T04:14:52.767Z,71.45
2022-09-30T04:17:55.764Z,71.50
2022-09-30T04:20:59.291Z,71.55
2022-09-30T04:24:02.529Z,71.66
2022-09-30T04:27:05.528Z,71.59
2022-09-30T04:30:08.911Z,71.40
2022-09-30T04:33:12.864Z,71.62
2022-09-30T04:36:15.893Z,71.83
2022-09-30T04:39:18.885Z,71.62
2022-09-30T04:42:21.912Z,71.99
2022-09-30T04:45:25.087Z,71.78
2022-09-30T04:48:30.351Z,71.91
2022-09-30T04:51:33.408Z,71.93
2022-09-30T04:54:36.594Z,72.05
2022-09-30T04:57:39.758Z,71.87
2022-09-30T05:00:42.810Z,72.00
2022-09-30T05:03:47.319Z,72.14
2022-09-30T05:06:50.379Z,72.12
2022-09-30T05:09:53.547Z,72.33
2022-09-30T05:12:58.088Z,72.30
2022-09-30T05:16:02.333Z,72.28
2022-09-30T05:19:05.593Z,72.29
2022-09-30T05:22:08.697Z,72.48
2022-09-30T05:25:11.850Z,72.43
2022-09-30T05:28:15.131Z,72.47
2022-09-30T05:31:20.845Z,72.60
2022-09-30T05:34:24.253Z,72.58
2022-09-30T05:37:27.355Z,72.67
2022-09-30T05:40:31.643Z,72.73
2022-09-30T05:43:37.311Z,72.60
2022-09-30T05:46:40.483Z,72.75
2022-09-30T05:49:43.546Z,72.68
2022-09-30T05:52:46.828Z,72.88
2022-09-30T05:55:50.582Z,72.85
2022-09-30T05:58:53.998Z,72.89
2022-09-30T06:01:57.032Z,72.91
2022-09-30T06:05:00.084Z,72.81
2022-09-30T06:08:04.202Z,73.17
2022-09-30T06:11:13.546Z,73.12
2022-09-30T06:14:20.015Z,73.20
2022-09-30T06:17:23.785Z,73.13
2022-09-30T06:20:26.974Z,73.19
2022-09-30T06:23:31.244Z,73.20
2022-09-30T06:26:34.331Z,73.10
2022-09-30T06:29:38.452Z,73.15
2022-09-30T06:32:42.591Z,73.10
2022-09-30T06:35:47.480Z,73.26
2022-09-30T06:38:54.509Z,73.24
2022-09-30T06:41:57.491Z,73.47
2022-09-30T06:45:01.191Z,73.27
2022-09-30T06:48:05.875Z,73.47
2022-09-30T06:51:11.764Z,73.42
2022-09-30T06:54:14.659Z,73.33
2022-09-30T06:57:22.635Z,73.56
2022-09-30T07:00:27.309Z,73.53
2022-09-30T07:03:33.075Z,73.85
2022-09-30T07:06:35.982Z,73.84
2022-09-30T07:09:39.101Z,73.81
2022-09-30T07:12:42.381Z,73.90
2022-09-30T07:15:45.303Z,73.82
2022-09-30T07:18:48.216Z,74.11
2022-09-30T07:21:51.411Z,73.98
2022-09-30T07:24:56.061Z,74.22
2022-09-30T07:27:58.997Z,74.04
2022-09-30T07:31:31.192Z,74.09
2022-09-30T07:34:31.158Z,74.19
2022-09-30T07:37:36.414Z,74.39
2022-09-30T07:40:39.295Z,74.31
2022-09-30T07:43:46.669Z,74.28
2022-09-30T07:46:49.726Z,74.42
2022-09-30T07:49:52.669Z,74.44
2022-09-30T07:52:56.405Z,74.57
2022-09-30T07:56:04.730Z,74.89
2022-09-30T07:59:08.101Z,74.74
2022-09-30T08:02:18.287Z,74.82
2022-09-30T08:05:21.844Z,74.75
2022-09-30T08:08:24.844Z,74.82
2022-09-30T08:11:27.925Z,74.70
2022-09-30T08:14:30.964Z,74.85
2022-09-30T08:17:33.870Z,74.79
2022-09-30T08:20:36.827Z,74.94
2022-09-30T08:23:40.486Z,74.95
2022-09-30T08:26:43.588Z,74.80
2022-09-30T08:29:55.513Z,74.78
2022-09-30T08:32:59.812Z,74.88
2022-09-30T08:36:10.937Z,74.94
2022-09-30T08:39:14.170Z,75.17
2022-09-30T08:42:38.821Z,75.13
2022-09-30T08:45:57.208Z,75.18
2022-09-30T08:49:24.347Z,75.22
2022-09-30T08:52:45.065Z,75.36
2022-09-30T08:55:54.561Z,75.29
2022-09-30T08:59:43.699Z,75.44
2022-09-30T09:02:50.107Z,75.33
2022-09-30T09:06:01.821Z,75.27
2022-09-30T09:09:23.582Z,75.50
2022-09-30T09:13:04.159Z,75.39
2022-09-30T09:16:30.250Z,75.54
2022-09-30T09:20:05.171Z,75.50
2022-09-30T09:23:11.902Z,75.48
2022-09-30T09:26:24.693Z,75.53
2022-09-30T09:29:49.010Z,75.57
2022-09-30T09:33:00.417Z,75.70
2022-09-30T09:36:34.105Z,75.69
2022-09-30T09:40:00.373Z,75.64
2022-09-30T09:43:26.291Z,75.64
2022-09-30T09:47:05.139Z,75.81
2022-09-30T09:50:19.367Z,75.78
2022-09-30T09:53:55.998Z,75.60
2022-09-30T09:57:16.111Z,76.03
2022-09-30T10:00:46.152Z,75.92
2022-09-30T10:04:14.746Z,75.84
2022-09-30T10:07:20.420Z,75.87
2022-09-30T10:10:24.470Z,76.05
2022-09-30T10:13:46.713Z,76.02
2022-09-30T10:16:55.006Z,75.88
2022-09-30T10:20:02.020Z,75.79
2022-09-30T10:23:32.425Z,76.05
2022-09-30T10:26:48.469Z,76.21
2022-09-30T10:29:57.097Z,76.06
2022-09-30T10:33:04.514Z,76.02
2022-09-30T10:36:13.931Z,76.20
2022-09-30T10:39:24.696Z,76.05
2022-09-30T10:42:36.270Z,76.09
2022-09-30T10:45:41.327Z,76.24
2022-09-30T10:48:50.508Z,76.29
2022-09-30T10:51:54.605Z,76.30
2022-09-30T10:54:59.978Z,76.28
2022-09-30T10:58:42.233Z,76.30
2022-09-30T11:02:01.978Z,76.39
2022-09-30T11:05:24.511Z,76.22
2022-09-30T11:08:45.327Z,76.22
2022-09-30T11:12:01.602Z,76.24
2022-09-30T11:15:24.096Z,76.21
2022-09-30T11:18:34.918Z,76.23
2022-09-30T11:21:46.478Z,76.25
2022-09-30T11:24:53.540Z,76.11
2022-09-30T11:28:31.223Z,76.23
2022-09-30T11:31:49.270Z,76.07
2022-09-30T11:35:23.099Z,76.13
2022-09-30T11:38:55.665Z,76.41
2022-09-30T11:42:17.645Z,76.22
2022-09-30T11:45:30.019Z,76.09
2022-09-30T11:48:35.769Z,76.26
2022-09-30T11:51:50.544Z,76.11
2022-09-30T11:55:13.083Z,76.13
2022-09-30T11:58:40.386Z,76.25
2022-09-30T12:01:49.432Z,76.16
2022-09-30T12:04:59.173Z,76.17
2022-09-30T12:08:11.980Z,76.20
2022-09-30T12:11:20.437Z,76.17
2022-09-30T12:14:34.502Z,76.14
2022-09-30T12:17:37.341Z,76.23
2022-09-30T12:20:43.203Z,76.30
2022-09-30T12:23:58.248Z,76.34
2022-09-30T12:27:02.073Z,76.40
2022-09-30T12:30:17.907Z,76.49
2022-09-30T12:33:56.365Z,76.42
2022-09-30T12:37:15.598Z,76.58
2022-09-30T12:40:33.227Z,76.43
2022-09-30T12:43:57.417Z,76.48
2022-09-30T12:47:19.558Z,76.49
2022-09-30T12:50:41.556Z,76.26
2022-09-30T12:53:50.184Z,76.29
2022-09-30T12:56:56.599Z,76.44
2022-09-30T13:00:08.298Z,76.41
2022-09-30T13:03:18.282Z,76.56
2022-09-30T13:06:22.482Z,76.47
2022-09-30T13:09:55.422Z,76.47
2022-09-30T13:13:10.574Z,76.42
2022-09-30T13:16:13.684Z,76.32
2022-09-30T13:19:21.399Z,76.42
2022-09-30T13:22:42.214Z,76.43
2022-09-30T13:25:54.820Z,76.63
2022-09-30T13:29:00.805Z,76.61
2022-09-30T13:32:05.431Z,76.40
2022-09-30T13:35:40.552Z,76.34
2022-09-30T13:38:43.633Z,76.28
2022-09-30T13:42:02.398Z,76.46
2022-09-30T13:45:21.958Z,76.53
2022-09-30T13:48:35.384Z,76.59
2022-09-30T13:51:41.729Z,76.45
2022-09-30T13:54:47.919Z,76.66
2022-09-30T13:58:28.472Z,76.48
2022-09-30T14:01:38.898Z,76.43
2022-09-30T14:04:47.543Z,76.57
2022-09-30T14:08:10.689Z,76.49
2022-09-30T14:11:13.735Z,76.38
2022-09-30T14:14:36.384Z,76.46
2022-09-30T14:17:49.637Z,76.50
2022-09-30T14:21:16.170Z,76.56
2022-09-30T14:24:24.133Z,76.57
2022-09-30T14:27:29.784Z,76.55
2022-09-30T14:30:39.508Z,76.53
2022-09-30T14:33:47.952Z,76.64
2022-09-30T14:36:53.624Z,76.67
2022-09-30T14:39:57.769Z,76.72
2022-09-30T14:43:06.288Z,76.71
2022-09-30T14:46:37.664Z,76.68
2022-09-30T14:49:41.163Z,76.72
2022-09-30T14:52:47.045Z,76.62
2022-09-30T14:55:50.297Z,76.68
2022-09-30T14:58:57.230Z,76.53
2022-09-30T15:02:22.319Z,76.63
2022-09-30T15:05:26.694Z,76.56
2022-09-30T15:08:29.690Z,76.53
2022-09-30T15:11:39.315Z,76.64
2022-09-30T15:14:56.926Z,76.58
2022-09-30T15:18:00.173Z,76.62
2022-09-30T15:21:31.344Z,76.51
2022-09-30T15:24:36.468Z,76.60
2022-09-30T15:27:39.757Z,76.69
2022-09-30T15:30:43.584Z,76.78
2022-09-30T15:33:46.717Z,76.68
2022-09-30T15:36:58.955Z,76.78
2022-09-30T15:40:21.278Z,76.75
2022-09-30T15:43:52.060Z,76.67
2022-09-30T15:47:10.934Z,76.75
2022-09-30T15:50:55.481Z,76.81
2022-09-30T15:54:29.328Z,76.76
2022-09-30T15:57:49.874Z,76.78
2022-09-30T16:01:21.805Z,76.79
2022-09-30T16:04:26.386Z,76.90
2022-09-30T16:07:32.022Z,77.02
2022-09-30T16:10:37.649Z,76.83
2022-09-30T16:13:45.412Z,76.73
2022-09-30T16:16:57.387Z,76.96
2022-09-30T16:20:05.303Z,76.95
2022-09-30T16:23:28.850Z,76.83
2022-09-30T16:26:34.135Z,76.84
2022-09-30T16:29:38.119Z,76.99
2022-09-30T16:32:44.310Z,77.02
2022-09-30T16:35:47.675Z,77.10
2022-09-30T16:38:50.687Z,77.01
2022-09-30T16:41:54.547Z,77.10
2022-09-30T16:45:01.215Z,76.87
2022-09-30T16:48:15.659Z,77.01
2022-09-30T16:51:18.832Z,77.10
2022-09-30T16:54:21.843Z,77.12
2022-09-30T16:57:24.721Z,77.17
2022-09-30T17:00:28.999Z,77.04
2022-09-30T17:03:32.906Z,77.17
2022-09-30T17:06:37.146Z,77.25
2022-09-30T17:09:40.550Z,77.00
2022-09-30T17:12:43.402Z,77.14
2022-09-30T17:15:52.616Z,76.98
2022-09-30T17:18:55.805Z,77.21
2022-09-30T17:21:58.646Z,77.07
2022-09-30T17:25:01.836Z,77.29
2022-09-30T17:28:06.114Z,77.10
2022-09-30T17:31:11.192Z,77.11
2022-09-30T17:34:14.598Z,77.19
2022-09-30T17:37:17.449Z,77.32
2022-09-30T17:40:38.621Z,76.92
2022-09-30T17:43:41.754Z,77.23
2022-09-30T17:46:45.678Z,77.26
2022-09-30T17:49:48.658Z,77.12
2022-09-30T17:52:51.612Z,77.09
2022-09-30T17:56:14.374Z,77.12
2022-09-30T17:59:21.566Z,77.27
2022-09-30T18:02:25.405Z,77.34
2022-09-30T18:05:30.685Z,77.22
2022-09-30T18:08:34.859Z,77.37
2022-09-30T18:11:43.340Z,77.23
2022-09-30T18:14:47.105Z,77.39
2022-09-30T18:17:50.114Z,77.21
2022-09-30T18:20:53.277Z,77.27
2022-09-30T18:23:57.731Z,77.13
2022-09-30T18:27:01.071Z,77.25
2022-09-30T18:30:06.104Z,77.31
2022-09-30T18:33:11.048Z,77.27
2022-09-30T18:36:14.668Z,77.45
2022-09-30T18:39:17.682Z,77.34
2022-09-30T18:42:20.733Z,77.38
2022-09-30T18:45:26.845Z,77.28
2022-09-30T18:48:30.894Z,77.40
2022-09-30T18:51:34.215Z,77.39
2022-09-30T18:54:41.788Z,77.35
2022-09-30T18:57:50.442Z,77.41
2022-09-30T19:00:55.995Z,77.46
2022-09-30T19:04:04.395Z,77.30
2022-09-30T19:07:07.812Z,77.51
2022-09-30T19:10:15.508Z,77.63
2022-09-30T19:13:18.574Z,77.59
2022-09-30T19:16:22.303Z,77.57
2022-09-30T19:19:25.523Z,77.61
2022-09-30T19:22:29.637Z,77.62
2022-09-30T19:25:32.657Z,77.49
2022-09-30T19:28:38.324Z,77.66
2022-09-30T19:31:45.433Z,77.50
2022-09-30T19:35:01.614Z,77.58
2022-09-30T19:38:12.085Z,77.64
2022-09-30T19:41:16.792Z,77.65
2022-09-30T19:44:21.649Z,77.60
2022-09-30T19:47:24.863Z,77.58
2022-09-30T19:50:28.293Z,77.54
2022-09-30T19:53:33.044Z,77.73
2022-09-30T19:56:38.247Z,77.56
2022-09-30T19:59:41.523Z,77.60
2022-09-30T20:02:45.550Z,77.70
2022-09-30T20:05:48.510Z,77.51
2022-09-30T20:09:00.270Z,77.83
2022-09-30T20:12:03.940Z,77.48
2022-09-30T20:15:28.052Z,77.70
2022-09-30T20:18:31.386Z,77.56
2022-09-30T20:21:35.423Z,77.56
2022-09-30T20:24:39.906Z,77.67
2022-09-30T20:27:51.920Z,77.68
2022-09-30T20:30:56.313Z,77.84
2022-09-30T20:34:00.131Z,77.88
2022-09-30T20:37:03.307Z,77.81
2022-09-30T20:40:09.245Z,77.95
2022-09-30T20:43:13.892Z,77.69
2022-09-30T20:46:16.798Z,77.81
2022-09-30T20:49:20.052Z,77.96
2022-09-30T20:52:23.693Z,77.75
2022-09-30T20:55:26.741Z,78.04
2022-09-30T20:58:29.881Z,78.10
2022-09-30T21:01:33.181Z,77.91
2022-09-30T21:04:36.409Z,77.97
2022-09-30T21:07:39.335Z,77.86
2022-09-30T21:10:42.286Z,78.11
2022-09-30T21:13:50.777Z,77.99
2022-09-30T21:16:53.897Z,77.94
2022-09-30T21:19:57.105Z,78.03
2022-09-30T21:22:59.988Z,77.88
2022-09-30T21:26:09.631Z,77.98
2022-09-30T21:29:12.705Z,78.16
2022-09-30T21:32:15.723Z,77.99
2022-09-30T21:35:18.669Z,77.95
2022-09-30T21:38:25.219Z,78.02
2022-09-30T21:41:28.358Z,78.06
2022-09-30T21:44:31.220Z,78.09
2022-09-30T21:47:34.397Z,78.33
2022-09-30T21:50:37.832Z,78.14
2022-09-30T21:53:41.396Z,78.23
2022-09-30T21:56:44.265Z,78.27
2022-09-30T21:59:50.374Z,78.37
2022-09-30T22:02:53.444Z,78.26
2022-09-30T22:05:58.375Z,78.16
2022-09-30T22:09:02.077Z,78.38
2022-09-30T22:12:08.991Z,78.22
2022-09-30T22:15:12.004Z,78.35
2022-09-30T22:18:20.690Z,78.23
2022-09-30T22:21:23.552Z,78.37
2022-09-30T22:24:26.386Z,78.54
2022-09-30T22:27:32.145Z,78.41
2022-09-30T22:30:37.954Z,78.57
2022-09-30T22:33:59.373Z,78.26
2022-09-30T22:37:20.517Z,78.32
2022-09-30T22:40:23.458Z,78.28
2022-09-30T22:43:27.365Z,78.33
2022-09-30T22:46:32.729Z,78.43
2022-09-30T22:49:36.254Z,78.55
2022-09-30T22:52:39.079Z,78.40
2022-09-30T22:55:41.993Z,78.35
2022-09-30T22:58:46.827Z,78.35
2022-09-30T23:01:49.754Z,78.36
2022-09-30T23:04:53.225Z,78.32
2022-09-30T23:07:56.080Z,78.16
2022-09-30T23:11:00.408Z,78.17
2022-09-30T23:14:03.401Z,78.37
2022-09-30T23:17:06.620Z,78.40
2022-09-30T23:20:10.042Z,78.35
2022-09-30T23:23:14.107Z,78.20
2022-09-30T23:26:20.244Z,78.32
2022-09-30T23:29:23.289Z,78.36
2022-09-30T23:32:26.716Z,78.26
2022-09-30T23:35:29.628Z,78.23
2022-09-30T23:38:33.497Z,78.26
2022-09-30T23:41:36.791Z,78.34
2022-09-30T23:44:39.875Z,78.38
2022-09-30T23:47:47.998Z,78.22
2022-09-30T23:50:51.492Z,78.30
2022-09-30T23:53:54.480Z,78.43
2022-09-30T23:56:57.408Z,78.39
